Time;durP1;ratioP1;P1;durP2;ratioP2;P2;SDS_P1;SDS_P2;PMS_P1;PMS_P2;Temp;Humidity;BMP_temperature;BMP_pressure;BME280_temperature;BME280_humidity;BME280_pressure;Samples;Min_cycle;Max_cycle;Signal;HPM_P1;HPM_P2
2021/11/19 00:04:14;;;;;;;14.48;3.97;;;6.90;99.90;;;;;;10308725;28;20470;-91
2021/11/19 00:09:16;;;;;;;18.88;3.20;;;6.90;99.90;;;;;;10299952;28;20129;-91
2021/11/19 00:14:19;;;;;;;11.00;3.08;;;7.00;99.90;;;;;;10298003;28;20053;-91
2021/11/19 00:19:22;;;;;;;11.32;3.00;;;7.00;99.90;;;;;;10287413;28;20086;-90
2021/11/19 00:24:26;;;;;;;13.30;3.00;;;7.00;99.90;;;;;;10277411;28;20092;-90
2021/11/19 00:29:28;;;;;;;10.45;2.45;;;7.00;99.90;;;;;;10288656;28;20082;-90
2021/11/19 00:34:30;;;;;;;16.30;3.72;;;7.00;99.90;;;;;;10295964;28;20058;-89
2021/11/19 00:39:32;;;;;;;13.63;4.05;;;7.00;99.90;;;;;;10303645;28;20053;-91
2021/11/19 00:44:35;;;;;;;9.93;3.05;;;7.00;99.90;;;;;;10290799;28;20066;-91
2021/11/19 00:49:40;;;;;;;11.77;3.20;;;7.10;99.90;;;;;;10277851;28;20061;-91
2021/11/19 00:54:42;;;;;;;8.50;3.00;;;7.00;99.90;;;;;;10293206;28;20046;-91
2021/11/19 01:00:06;;;;;;;17.45;4.72;;;7.00;99.90;;;;;;10276978;28;20428;-89
2021/11/19 01:05:09;;;;;;;11.73;4.07;;;7.00;99.90;;;;;;10277083;28;20134;-90
2021/11/19 01:10:17;;;;;;;12.40;4.03;;;7.00;99.90;;;;;;10301024;28;20053;-90
2021/11/19 01:16:15;;;;;;;11.75;3.13;;;7.00;99.90;;;;;;10307770;28;20089;-90
2021/11/19 01:21:31;;;;;;;12.55;4.22;;;7.00;99.90;;;;;;10284037;28;20049;-89
2021/11/19 01:26:37;;;;;;;9.13;3.60;;;7.00;99.90;;;;;;10290660;28;20054;-89
2021/11/19 01:31:52;;;;;;;11.20;3.97;;;7.00;99.90;;;;;;10298823;28;20065;-89
2021/11/19 01:36:55;;;;;;;17.42;4.25;;;7.00;99.90;;;;;;10268607;28;20054;-90
2021/11/19 01:42:02;;;;;;;10.25;3.47;;;7.00;99.90;;;;;;10275611;28;20046;-89
2021/11/19 01:47:08;;;;;;;11.25;3.67;;;7.00;99.90;;;;;;10291677;28;20058;-89
2021/11/19 01:52:15;;;;;;;11.07;4.03;;;6.90;99.90;;;;;;10290149;28;20077;-89
2021/11/19 01:57:25;;;;;;;12.60;3.80;;;6.90;99.90;;;;;;10291916;28;20108;-90
2021/11/19 02:02:34;;;;;;;13.68;4.18;;;6.90;99.90;;;;;;10316031;28;20077;-89
2021/11/19 02:07:45;;;;;;;21.63;4.97;;;6.90;99.90;;;;;;10330486;28;20141;-90
2021/11/19 02:13:08;;;;;;;15.70;4.55;;;6.80;99.90;;;;;;10361616;28;20520;-90
2021/11/19 02:18:18;;;;;;;16.73;4.28;;;6.80;99.90;;;;;;10349024;28;20057;-89
2021/11/19 02:23:25;;;;;;;15.93;4.65;;;6.90;99.90;;;;;;10308210;28;20520;-89
2021/11/19 02:28:30;;;;;;;14.32;3.97;;;6.80;99.90;;;;;;10351079;28;20497;-90
2021/11/19 02:33:33;;;;;;;11.93;4.32;;;6.90;99.90;;;;;;10368826;28;20060;-90
2021/11/19 02:38:36;;;;;;;14.23;3.83;;;6.90;99.90;;;;;;10349699;28;20062;-89
2021/11/19 02:43:49;;;;;;;15.60;4.45;;;6.90;99.90;;;;;;10346412;28;20089;-90
2021/11/19 02:48:52;;;;;;;14.43;3.38;;;6.90;99.90;;;;;;10362031;28;20062;-90
2021/11/19 02:53:54;;;;;;;11.68;3.70;;;6.90;99.90;;;;;;10342602;28;20085;-89
2021/11/19 02:58:58;;;;;;;13.23;3.92;;;6.90;99.90;;;;;;10336853;28;20053;-89
2021/11/19 03:04:03;;;;;;;11.30;3.45;;;6.90;99.90;;;;;;10356996;28;20049;-89
2021/11/19 03:09:06;;;;;;;11.45;3.45;;;6.80;99.90;;;;;;10339968;28;20050;-89
2021/11/19 03:14:10;;;;;;;14.30;3.50;;;6.80;99.90;;;;;;10341276;28;20046;-90
2021/11/19 03:19:14;;;;;;;13.63;4.60;;;6.70;99.90;;;;;;10357085;28;20041;-90
2021/11/19 03:24:18;;;;;;;23.00;5.68;;;6.70;99.90;;;;;;10338092;28;20076;-89
2021/11/19 03:29:22;;;;;;;14.38;4.25;;;6.70;99.90;;;;;;10334940;28;20140;-89
2021/11/19 03:34:24;;;;;;;10.30;4.22;;;6.60;99.90;;;;;;10328411;28;20069;-88
2021/11/19 03:39:28;;;;;;;13.88;4.15;;;6.70;99.90;;;;;;10319793;28;20467;-89
2021/11/19 03:44:34;;;;;;;18.42;4.90;;;6.70;99.90;;;;;;10356942;28;20058;-89
2021/11/19 03:49:36;;;;;;;18.10;4.60;;;6.70;99.90;;;;;;10320427;28;20055;-89
2021/11/19 03:54:41;;;;;;;15.80;4.97;;;6.70;99.90;;;;;;10358213;28;20113;-89
2021/11/19 03:59:44;;;;;;;22.02;5.40;;;6.70;99.90;;;;;;10352226;28;20158;-89
2021/11/19 04:05:07;;;;;;;26.77;5.40;;;6.60;99.90;;;;;;10273374;28;20060;-89
2021/11/19 04:10:11;;;;;;;32.47;5.30;;;6.60;99.90;;;;;;10320421;28;20069;-88
2021/11/19 04:15:45;;;;;;;16.02;5.03;;;6.60;99.90;;;;;;10309775;28;20137;-88
2021/11/19 04:20:50;;;;;;;17.50;5.20;;;6.60;99.90;;;;;;10340621;28;20086;-89
2021/11/19 04:26:03;;;;;;;15.10;4.97;;;6.60;99.90;;;;;;10341362;28;20513;-88
2021/11/19 04:31:06;;;;;;;16.52;6.22;;;6.50;99.90;;;;;;10353946;28;20092;-89
2021/11/19 04:36:09;;;;;;;20.67;5.80;;;6.50;99.90;;;;;;10297960;28;20052;-89
2021/11/19 04:41:12;;;;;;;21.65;5.88;;;6.50;99.90;;;;;;10286830;28;20025;-90
2021/11/19 04:46:15;;;;;;;19.92;6.35;;;6.50;99.90;;;;;;10307673;28;20637;-89
2021/11/19 04:51:34;;;;;;;16.27;5.70;;;6.40;99.90;;;;;;10284393;28;20054;-90
2021/11/19 04:56:37;;;;;;;16.02;5.85;;;6.40;99.90;;;;;;10297309;28;20062;-90
2021/11/19 05:01:44;;;;;;;21.58;7.18;;;6.40;99.90;;;;;;10340343;28;20049;-89
2021/11/19 05:06:46;;;;;;;23.02;6.90;;;6.40;99.90;;;;;;10338504;28;20026;-89
2021/11/19 05:12:00;;;;;;;24.55;6.35;;;6.40;99.90;;;;;;10248692;28;20055;-89
2021/11/19 05:17:06;;;;;;;26.98;6.47;;;6.30;99.90;;;;;;10288983;28;20045;-89
2021/11/19 05:22:08;;;;;;;21.90;7.85;;;6.30;99.90;;;;;;10292491;28;20064;-89
2021/11/19 05:27:10;;;;;;;26.25;8.38;;;6.20;99.90;;;;;;10309823;28;20109;-89
2021/11/19 05:32:12;;;;;;;30.80;7.38;;;6.20;99.90;;;;;;10284385;28;20054;-90
2021/11/19 05:37:14;;;;;;;43.00;9.35;;;6.20;99.90;;;;;;10283259;28;20050;-89
2021/11/19 05:42:17;;;;;;;32.92;9.40;;;6.20;99.90;;;;;;10272186;28;20049;-90
2021/11/19 05:47:19;;;;;;;29.38;9.48;;;6.30;99.90;;;;;;10309637;28;20050;-90
2021/11/19 05:52:21;;;;;;;27.25;6.93;;;6.30;99.90;;;;;;10297593;28;20050;-89
2021/11/19 05:57:23;;;;;;;24.88;7.72;;;6.30;99.90;;;;;;10292156;28;20085;-90
2021/11/19 06:02:25;;;;;;;30.00;8.18;;;6.40;99.90;;;;;;10297922;28;20054;-90
2021/11/19 06:07:28;;;;;;;24.40;7.18;;;6.40;99.90;;;;;;10297944;28;20054;-89
2021/11/19 06:12:34;;;;;;;25.45;7.80;;;6.40;99.90;;;;;;10316384;28;20061;-89
2021/11/19 06:17:40;;;;;;;31.05;8.38;;;6.50;99.90;;;;;;10315890;28;20082;-89
2021/11/19 06:22:47;;;;;;;22.08;8.15;;;6.60;99.90;;;;;;10280034;28;20054;-89
2021/11/19 06:27:50;;;;;;;24.07;7.70;;;6.60;99.90;;;;;;10299946;28;20050;-89
2021/11/19 06:32:52;;;;;;;25.40;8.15;;;6.60;99.90;;;;;;10309086;28;20053;-89
2021/11/19 06:37:54;;;;;;;25.52;9.20;;;6.70;99.90;;;;;;10318710;28;20066;-89
2021/11/19 06:42:57;;;;;;;19.38;7.85;;;6.70;99.90;;;;;;10284834;28;20057;-91
2021/11/19 06:48:07;;;;;;;27.77;8.48;;;6.70;99.90;;;;;;10186062;28;20113;-93
2021/11/19 06:53:26;;;;;;;27.58;8.38;;;6.70;99.90;;;;;;10244234;28;20051;-88
2021/11/19 06:58:28;;;;;;;25.00;7.63;;;6.70;99.90;;;;;;10291945;28;20050;-88
2021/11/19 07:03:30;;;;;;;37.42;9.57;;;6.70;99.90;;;;;;10274369;28;20055;-88
2021/11/19 07:08:33;;;;;;;29.75;8.90;;;6.70;99.90;;;;;;10311540;28;20058;-88
2021/11/19 07:13:35;;;;;;;24.85;8.63;;;6.70;99.90;;;;;;10343795;28;20069;-88
2021/11/19 07:18:47;;;;;;;31.83;9.32;;;6.70;99.90;;;;;;10364920;28;20046;-91
2021/11/19 07:23:50;;;;;;;30.27;9.57;;;6.70;99.90;;;;;;10338957;28;20588;-91
2021/11/19 07:28:52;;;;;;;32.95;9.40;;;6.70;99.90;;;;;;10355537;28;20528;-92
2021/11/19 07:33:54;;;;;;;31.70;9.15;;;6.70;99.90;;;;;;10367065;28;20104;-91
2021/11/19 07:38:57;;;;;;;34.20;10.05;;;6.70;99.90;;;;;;10336920;28;20070;-92
2021/11/19 07:43:59;;;;;;;32.47;10.63;;;6.60;99.90;;;;;;10323581;28;20050;-92
2021/11/19 07:49:01;;;;;;;33.47;10.65;;;6.70;99.90;;;;;;10289138;28;20061;-92
2021/11/19 07:54:04;;;;;;;37.78;10.25;;;6.60;99.90;;;;;;10360626;28;20139;-92
2021/11/19 07:59:10;;;;;;;29.80;11.25;;;6.60;99.90;;;;;;10338075;28;20081;-92
2021/11/19 08:04:13;;;;;;;39.47;11.45;;;6.70;99.90;;;;;;10340649;28;20423;-92
2021/11/19 08:09:20;;;;;;;42.53;10.63;;;6.70;99.90;;;;;;10323869;28;20054;-92
2021/11/19 08:14:23;;;;;;;37.35;10.48;;;6.70;99.90;;;;;;10303420;28;20052;-92
2021/11/19 08:19:29;;;;;;;37.03;11.25;;;6.80;99.90;;;;;;10355972;28;20064;-92
2021/11/19 08:24:31;;;;;;;31.85;10.25;;;6.90;99.90;;;;;;10318499;28;20077;-93
2021/11/19 08:29:35;;;;;;;35.40;11.70;;;6.90;99.90;;;;;;10302842;28;20057;-92
2021/11/19 08:34:37;;;;;;;41.92;10.65;;;7.00;99.90;;;;;;10320251;28;20054;-93
2021/11/19 08:39:39;;;;;;;37.38;10.52;;;7.00;99.90;;;;;;10347166;28;20173;-92
2021/11/19 08:44:43;;;;;;;31.38;10.10;;;7.10;99.90;;;;;;10329880;28;20220;-91
2021/11/19 08:50:04;;;;;;;30.33;9.98;;;7.20;99.90;;;;;;10343190;28;20550;-92
2021/11/19 08:55:10;;;;;;;24.67;9.27;;;7.30;99.90;;;;;;10305242;28;20054;-92
2021/11/19 09:00:17;;;;;;;33.05;9.57;;;7.40;99.90;;;;;;10313621;28;20132;-90
2021/11/19 09:05:20;;;;;;;29.90;9.23;;;7.40;99.90;;;;;;10328040;28;20072;-90
2021/11/19 09:10:22;;;;;;;29.92;10.50;;;7.40;99.90;;;;;;10289383;28;20057;-91
2021/11/19 09:15:25;;;;;;;25.73;9.43;;;7.50;99.90;;;;;;10274126;28;20156;-91
2021/11/19 09:20:47;;;;;;;34.28;10.38;;;7.40;99.90;;;;;;10309025;28;20521;-90
2021/11/19 09:25:51;;;;;;;28.20;10.13;;;7.40;99.90;;;;;;10346102;28;20054;-90
2021/11/19 09:30:58;;;;;;;25.33;8.73;;;7.20;99.90;;;;;;10351010;28;20128;-90
2021/11/19 09:36:00;;;;;;;30.38;9.10;;;7.20;99.90;;;;;;10347315;28;20108;-90
2021/11/19 09:41:05;;;;;;;38.55;10.25;;;7.20;99.90;;;;;;10360661;28;20056;-92
2021/11/19 09:46:36;;;;;;;35.55;10.35;;;7.20;99.90;;;;;;10298695;28;20050;-91
2021/11/19 09:51:58;;;;;;;40.90;11.15;;;7.20;99.90;;;;;;10335256;28;20073;-91
2021/11/19 09:57:19;;;;;;;31.73;10.02;;;7.20;99.90;;;;;;10359184;28;20061;-93
2021/11/19 10:02:30;;;;;;;29.75;10.32;;;7.20;99.90;;;;;;10362829;28;20042;-93
2021/11/19 10:08:01;;;;;;;33.55;10.73;;;7.30;99.90;;;;;;10337553;28;20527;-93
2021/11/19 10:13:09;;;;;;;35.42;10.63;;;7.40;99.90;;;;;;10341985;28;20046;-93
2021/11/19 10:18:21;;;;;;;37.15;11.55;;;7.40;99.90;;;;;;10323484;28;20061;-93
2021/11/19 10:23:37;;;;;;;34.95;10.95;;;7.30;99.90;;;;;;10351107;28;20160;-93
2021/11/19 10:29:04;;;;;;;33.88;11.18;;;7.40;99.90;;;;;;10343864;28;20165;-93
2021/11/19 10:34:09;;;;;;;36.63;10.93;;;7.40;99.90;;;;;;10299506;28;20050;-92
2021/11/19 10:39:33;;;;;;;37.53;11.97;;;7.50;99.90;;;;;;10338684;28;20057;-93
2021/11/19 10:44:41;;;;;;;25.75;9.85;;;7.70;99.90;;;;;;10206007;28;20035;-92
2021/11/19 10:50:02;;;;;;;27.83;10.07;;;7.70;99.90;;;;;;10276356;28;20058;-92
2021/11/19 10:55:32;;;;;;;32.17;11.23;;;7.70;99.90;;;;;;10318363;28;20546;-92
2021/11/19 11:07:24;;;;;;;30.23;12.32;;;7.80;99.90;;;;;;10172776;28;20046;-93
2021/11/19 11:12:28;;;;;;;36.22;13.57;;;7.90;99.90;;;;;;10317480;28;20146;-92
2021/11/19 11:17:33;;;;;;;36.83;12.25;;;7.80;99.90;;;;;;10361330;28;20061;-92
2021/11/19 11:22:48;;;;;;;29.85;10.43;;;8.00;99.90;;;;;;10326185;28;20133;-92
2021/11/19 11:28:20;;;;;;;28.20;10.73;;;8.00;99.90;;;;;;10361140;28;20530;-91
2021/11/19 11:33:32;;;;;;;29.15;10.40;;;8.10;99.90;;;;;;10361135;28;20198;-93
2021/11/19 11:39:10;;;;;;;37.33;11.32;;;8.10;99.90;;;;;;10342616;28;20057;-92
2021/11/19 11:44:12;;;;;;;;;;;8.20;99.90;;;;;;10352836;28;20113;-92
2021/11/19 11:49:47;;;;;;;30.02;10.77;;;8.20;99.90;;;;;;10328732;28;19980;-93
2021/11/19 11:55:18;;;;;;;26.92;8.95;;;8.30;99.90;;;;;;10360184;28;20094;-92
2021/11/19 12:00:35;;;;;;;28.10;9.48;;;8.30;99.90;;;;;;10322981;28;20047;-93
2021/11/19 12:06:01;;;;;;;27.08;8.73;;;8.40;99.90;;;;;;10337264;28;20092;-92
2021/11/19 12:11:37;;;;;;;22.38;9.57;;;8.40;99.90;;;;;;10350669;28;20120;-92
2021/11/19 12:16:51;;;;;;;20.65;8.00;;;8.50;99.90;;;;;;10366711;28;20054;-92
2021/11/19 12:22:15;;;;;;;19.80;7.13;;;8.70;99.90;;;;;;10351070;28;20074;-92
2021/11/19 12:27:45;;;;;;;18.67;7.50;;;8.80;99.90;;;;;;10331358;28;20046;-92
2021/11/19 12:33:16;;;;;;;11.43;5.07;;;9.00;99.90;;;;;;10305768;28;20084;-92
2021/11/19 12:38:30;;;;;;;13.20;5.15;;;9.10;99.90;;;;;;10308244;28;20439;-92
2021/11/19 12:44:00;;;;;;;10.23;4.80;;;9.00;99.90;;;;;;10321167;28;20053;-92
2021/11/19 12:49:17;;;;;;;16.33;5.82;;;9.10;99.90;;;;;;10335252;28;20060;-92
2021/11/19 12:55:05;;;;;;;11.60;4.17;;;9.20;99.90;;;;;;10333746;28;20054;-92
2021/11/19 13:00:38;;;;;;;11.25;4.50;;;9.10;99.90;;;;;;10335389;28;20073;-93
2021/11/19 13:05:51;;;;;;;11.55;4.10;;;9.10;99.90;;;;;;10295527;28;20079;-91
2021/11/19 13:11:28;;;;;;;11.00;4.05;;;9.10;99.90;;;;;;10309968;28;20374;-92
2021/11/19 13:16:33;;;;;;;7.38;3.20;;;9.20;99.90;;;;;;10336195;28;20141;-92
2021/11/19 13:21:40;;;;;;;8.68;4.28;;;9.10;99.90;;;;;;10317215;28;20140;-92
2021/11/19 13:26:47;;;;;;;8.50;2.70;;;9.20;99.90;;;;;;10297243;28;20047;-92
2021/11/19 13:31:49;;;;;;;9.57;2.85;;;9.30;99.90;;;;;;10330520;28;20043;-93
2021/11/19 13:36:59;;;;;;;7.07;2.75;;;9.30;99.90;;;;;;10298001;28;20149;-92
2021/11/19 13:42:03;;;;;;;5.65;3.00;;;9.30;99.90;;;;;;10276879;28;20389;-92
2021/11/19 13:47:38;;;;;;;4.13;1.88;;;9.40;99.90;;;;;;10299819;28;20058;-92
2021/11/19 13:52:55;;;;;;;4.05;2.00;;;9.50;99.90;;;;;;10265820;28;20060;-91
2021/11/19 13:58:18;;;;;;;3.50;1.63;;;9.50;99.90;;;;;;10316386;28;20057;-91
2021/11/19 14:03:30;;;;;;;4.70;1.48;;;9.50;99.90;;;;;;10295701;28;20054;-92
2021/11/19 14:09:07;;;;;;;2.92;1.25;;;9.50;99.90;;;;;;10306420;28;20117;-91
2021/11/19 14:14:34;;;;;;;4.90;1.20;;;9.60;99.90;;;;;;10312034;28;20567;-91
2021/11/19 14:24:52;;;;;;;2.35;1.17;;;9.70;99.90;;;;;;10312495;28;20110;-92
2021/11/19 14:29:57;;;;;;;2.60;1.13;;;9.70;99.90;;;;;;10321946;28;20089;-91
2021/11/19 14:35:20;;;;;;;2.38;0.88;;;9.80;99.90;;;;;;10317486;28;20090;-93
2021/11/19 14:40:31;;;;;;;1.45;0.82;;;9.80;99.90;;;;;;10228215;28;20086;-91
2021/11/19 14:45:49;;;;;;;4.65;1.00;;;9.70;99.90;;;;;;10308037;28;20117;-91
2021/11/19 14:51:10;;;;;;;2.63;1.08;;;9.70;99.90;;;;;;10331154;28;20089;-91
2021/11/19 14:56:19;;;;;;;2.70;1.10;;;9.70;99.90;;;;;;10252585;28;20101;-92
2021/11/19 15:01:21;;;;;;;2.30;1.02;;;9.70;99.90;;;;;;10273558;28;20091;-91
2021/11/19 15:06:33;;;;;;;2.22;0.65;;;9.70;99.90;;;;;;10299052;28;20067;-90
2021/11/19 15:11:44;;;;;;;2.03;0.70;;;9.70;99.90;;;;;;10295273;28;20052;-91
2021/11/19 15:17:16;;;;;;;2.42;0.73;;;9.70;99.90;;;;;;10289194;28;20434;-90
2021/11/19 15:22:21;;;;;;;1.83;0.80;;;9.70;99.90;;;;;;10296812;28;20077;-90
2021/11/19 15:27:57;;;;;;;5.00;1.50;;;9.70;99.90;;;;;;10298413;28;20077;-89
2021/11/19 15:33:18;;;;;;;3.22;1.08;;;9.70;99.90;;;;;;10288356;28;20069;-90
2021/11/19 15:38:41;;;;;;;2.85;0.98;;;9.70;99.90;;;;;;10312410;28;20130;-91
2021/11/19 15:43:46;;;;;;;2.83;1.30;;;9.70;99.90;;;;;;10301777;28;20084;-91
2021/11/19 15:49:04;;;;;;;3.42;0.80;;;9.70;99.90;;;;;;10278508;28;20048;-90
2021/11/19 15:54:40;;;;;;;1.63;0.70;;;9.60;99.90;;;;;;10265219;28;20445;-90
2021/11/19 15:59:58;;;;;;;2.55;1.20;;;9.70;99.90;;;;;;10297038;28;20051;-90
2021/11/19 16:05:32;;;;;;;2.63;0.80;;;9.70;99.90;;;;;;10294750;28;20129;-90
2021/11/19 16:10:42;;;;;;;3.90;1.17;;;9.70;99.90;;;;;;10293128;28;20058;-90
2021/11/19 16:15:50;;;;;;;4.03;1.13;;;9.80;99.90;;;;;;10264053;28;20597;-90
2021/11/19 16:20:54;;;;;;;5.70;2.05;;;9.80;99.90;;;;;;10330322;28;20120;-90
2021/11/19 16:26:00;;;;;;;4.72;3.13;;;9.70;99.90;;;;;;10314614;28;20064;-90
2021/11/19 16:31:05;;;;;;;6.03;2.30;;;9.70;99.90;;;;;;10333797;28;20567;-90
2021/11/19 16:36:07;;;;;;;3.05;1.35;;;9.60;99.90;;;;;;10337771;28;20082;-91
2021/11/19 16:41:09;;;;;;;2.58;0.70;;;9.60;99.90;;;;;;10349493;28;20057;-89
2021/11/19 16:46:15;;;;;;;1.92;0.85;;;9.70;99.90;;;;;;10299878;28;20076;-90
2021/11/19 16:51:35;;;;;;;3.55;1.83;;;9.60;99.90;;;;;;10331081;28;20056;-90
2021/11/19 16:56:40;;;;;;;4.22;1.40;;;9.60;99.90;;;;;;10327443;28;20407;-90
2021/11/19 17:01:46;;;;;;;1.93;1.00;;;9.60;99.90;;;;;;10326533;28;20062;-90
2021/11/19 17:06:50;;;;;;;4.68;1.23;;;9.60;99.90;;;;;;10352646;28;20412;-90
2021/11/19 17:11:57;;;;;;;2.80;1.17;;;9.60;99.90;;;;;;10291743;28;20461;-89
2021/11/19 17:17:06;;;;;;;2.47;1.63;;;9.60;99.90;;;;;;10360184;28;20057;-90
2021/11/19 17:22:08;;;;;;;3.08;1.42;;;9.50;99.90;;;;;;10361128;28;20046;-90
2021/11/19 17:27:11;;;;;;;3.78;1.15;;;9.50;99.90;;;;;;10287882;28;20412;-90
2021/11/19 17:32:19;;;;;;;4.50;1.20;;;9.50;99.90;;;;;;10353385;28;20072;-89
2021/11/19 17:37:25;;;;;;;3.83;1.50;;;9.50;99.90;;;;;;10311631;28;20074;-90
2021/11/19 17:42:39;;;;;;;5.53;1.55;;;9.40;99.90;;;;;;10369242;28;20390;-90
2021/11/19 17:47:45;;;;;;;3.95;1.48;;;9.40;99.90;;;;;;10298438;28;20049;-89
2021/11/19 17:52:50;;;;;;;3.85;1.67;;;9.30;99.90;;;;;;10317189;28;20081;-88
2021/11/19 17:57:52;;;;;;;3.80;1.92;;;9.30;99.90;;;;;;10309944;28;20077;-88
2021/11/19 18:02:55;;;;;;;3.50;1.75;;;9.30;99.90;;;;;;10350840;28;20058;-88
2021/11/19 18:07:57;;;;;;;6.03;1.58;;;9.30;99.90;;;;;;10345657;28;20062;-88
2021/11/19 18:12:59;;;;;;;4.15;1.38;;;9.30;99.90;;;;;;10351337;28;20053;-87
2021/11/19 18:18:04;;;;;;;4.75;1.92;;;9.30;99.90;;;;;;10368360;28;20065;-88
2021/11/19 18:23:06;;;;;;;6.32;2.72;;;9.30;99.90;;;;;;10359007;28;20081;-88
2021/11/19 18:28:10;;;;;;;6.57;1.73;;;9.30;99.90;;;;;;10349927;28;20045;-88
2021/11/19 18:33:12;;;;;;;6.18;2.65;;;9.30;99.90;;;;;;10366686;28;20057;-87
2021/11/19 18:38:17;;;;;;;5.13;2.35;;;9.20;99.90;;;;;;10372907;28;20064;-88
2021/11/19 18:43:22;;;;;;;7.90;2.65;;;9.20;99.90;;;;;;10336619;28;20050;-88
2021/11/19 18:48:26;;;;;;;5.28;2.38;;;9.20;99.90;;;;;;10313106;28;20054;-87
2021/11/19 18:53:31;;;;;;;5.85;2.17;;;9.20;99.90;;;;;;10361653;28;20500;-87
2021/11/19 18:58:35;;;;;;;5.65;2.05;;;9.20;99.90;;;;;;10348228;28;20062;-88
2021/11/19 19:03:38;;;;;;;7.10;3.22;;;9.20;99.90;;;;;;10359109;28;20069;-87
2021/11/19 19:08:40;;;;;;;4.88;2.38;;;9.10;99.90;;;;;;10327171;28;20054;-88
2021/11/19 19:13:43;;;;;;;6.95;2.95;;;9.20;99.90;;;;;;10351521;28;20053;-88
2021/11/19 19:18:46;;;;;;;6.07;2.50;;;9.20;99.90;;;;;;10351009;28;20064;-88
2021/11/19 19:23:48;;;;;;;5.35;2.00;;;9.10;99.90;;;;;;10341903;28;20050;-87
2021/11/19 19:28:55;;;;;;;6.00;2.65;;;9.10;99.90;;;;;;10341189;28;20643;-87
2021/11/19 19:33:58;;;;;;;7.85;2.35;;;9.20;99.90;;;;;;10337900;28;21334;-87
2021/11/19 19:39:06;;;;;;;5.45;2.78;;;9.10;99.90;;;;;;10337452;28;20054;-87
2021/11/19 19:44:10;;;;;;;7.63;3.70;;;9.10;99.90;;;;;;10323064;28;20046;-87
2021/11/19 19:49:13;;;;;;;7.78;3.67;;;9.10;99.90;;;;;;10311440;28;20116;-87
2021/11/19 19:54:23;;;;;;;11.57;3.20;;;9.10;99.90;;;;;;10356782;28;20065;-87
2021/11/19 19:59:27;;;;;;;7.40;4.10;;;9.10;99.90;;;;;;10347390;28;20049;-88
2021/11/19 20:04:43;;;;;;;7.53;3.28;;;9.10;99.90;;;;;;10319658;28;20528;-88
2021/11/19 20:09:46;;;;;;;10.13;4.28;;;9.10;99.90;;;;;;10321930;28;20137;-88
2021/11/19 20:14:52;;;;;;;7.03;3.42;;;9.10;99.90;;;;;;10336567;28;20113;-89
2021/11/19 20:20:15;;;;;;;8.02;3.58;;;9.10;99.90;;;;;;10319672;28;20049;-89
2021/11/19 20:25:43;;;;;;;10.50;3.92;;;9.10;99.90;;;;;;10325182;28;20069;-90
2021/11/19 20:30:45;;;;;;;8.15;3.78;;;9.00;99.90;;;;;;10356744;28;20058;-87
2021/11/19 20:35:50;;;;;;;8.35;3.88;;;9.00;99.90;;;;;;10325153;28;20050;-88
2021/11/19 20:41:03;;;;;;;16.15;4.50;;;9.00;99.90;;;;;;10352509;28;20050;-88
2021/11/19 20:46:08;;;;;;;11.57;4.10;;;9.00;99.90;;;;;;10362274;28;20061;-89
2021/11/19 20:51:15;;;;;;;10.65;4.07;;;9.00;99.90;;;;;;10323424;28;20056;-89
2021/11/19 20:56:21;;;;;;;10.38;4.60;;;9.00;99.90;;;;;;10338720;28;20058;-89
2021/11/19 21:01:26;;;;;;;;;;;9.00;99.90;;;;;;10300789;28;20050;-90
2021/11/19 21:06:31;;;;;;;9.85;4.03;;;8.90;99.90;;;;;;10355763;28;19929;-89
2021/11/19 21:11:39;;;;;;;8.90;4.97;;;8.90;99.90;;;;;;10333681;28;20533;-88
2021/11/19 21:16:42;;;;;;;9.85;5.00;;;8.80;99.90;;;;;;10318935;28;20068;-89
2021/11/19 21:21:46;;;;;;;10.68;4.63;;;8.80;99.90;;;;;;10345877;28;20065;-89
2021/11/19 21:26:54;;;;;;;14.45;5.78;;;8.80;99.90;;;;;;10356722;28;20128;-89
2021/11/19 21:32:04;;;;;;;12.57;5.15;;;8.80;99.90;;;;;;10363048;28;20145;-89
2021/11/19 21:37:09;;;;;;;12.20;5.10;;;8.70;99.90;;;;;;10385379;28;20066;-89
2021/11/19 21:42:19;;;;;;;11.07;5.15;;;8.70;99.90;;;;;;10331121;28;20096;-88
2021/11/19 21:47:24;;;;;;;10.32;5.05;;;8.70;99.90;;;;;;10348312;28;20072;-89
2021/11/19 21:52:46;;;;;;;11.60;5.47;;;8.80;99.90;;;;;;10369247;28;20062;-89
2021/11/19 21:57:54;;;;;;;15.00;4.72;;;8.70;99.90;;;;;;10347964;28;20082;-88
2021/11/19 22:03:02;;;;;;;12.95;5.32;;;8.70;99.90;;;;;;10351565;28;20054;-88
2021/11/19 22:08:04;;;;;;;;;;;8.70;99.90;;;;;;10343809;28;20532;-90
2021/11/19 22:13:11;;;;;;;13.38;5.32;;;8.70;99.90;;;;;;10307524;28;19945;-89
2021/11/19 22:18:18;;;;;;;10.30;5.70;;;8.70;99.90;;;;;;10263064;28;20050;-89
2021/11/19 22:23:21;;;;;;;15.13;5.43;;;8.70;99.90;;;;;;10282215;28;20050;-89
2021/11/19 22:28:27;;;;;;;13.63;5.95;;;8.60;99.90;;;;;;10311513;28;20061;-89
2021/11/19 22:33:31;;;;;;;13.77;5.93;;;8.70;99.90;;;;;;10304033;28;20058;-90
2021/11/19 22:38:45;;;;;;;13.63;5.90;;;8.60;99.90;;;;;;10277962;28;21057;-90
2021/11/19 22:43:48;;;;;;;13.80;6.18;;;8.60;99.90;;;;;;10306925;28;20404;-89
2021/11/19 22:48:50;;;;;;;13.73;5.68;;;8.60;99.90;;;;;;10298589;28;20556;-89
2021/11/19 22:53:55;;;;;;;14.80;6.57;;;8.50;99.90;;;;;;10301084;28;20501;-90
2021/11/19 22:59:01;;;;;;;15.75;6.53;;;8.60;99.90;;;;;;10312717;28;20128;-90
2021/11/19 23:04:11;;;;;;;17.10;5.95;;;8.60;99.90;;;;;;10283605;28;20046;-89
2021/11/19 23:09:44;;;;;;;15.32;7.35;;;8.50;99.90;;;;;;10344965;28;20064;-90
2021/11/19 23:14:48;;;;;;;17.00;6.40;;;8.50;99.90;;;;;;10353668;28;20054;-90
2021/11/19 23:19:51;;;;;;;17.75;6.85;;;8.50;99.90;;;;;;10339361;28;20061;-88
2021/11/19 23:24:56;;;;;;;15.93;6.10;;;8.50;99.90;;;;;;10337560;28;20535;-89
2021/11/19 23:29:59;;;;;;;15.98;5.55;;;8.50;99.90;;;;;;10337632;28;20068;-89
2021/11/19 23:35:25;;;;;;;20.27;7.18;;;8.50;99.90;;;;;;10352608;28;20493;-89
2021/11/19 23:40:31;;;;;;;18.48;6.65;;;8.60;99.90;;;;;;10318737;28;20133;-89
2021/11/19 23:45:41;;;;;;;18.77;6.50;;;8.60;99.90;;;;;;10338264;28;20053;-89
2021/11/19 23:50:44;;;;;;;14.57;7.18;;;8.60;99.90;;;;;;10359674;28;20532;-89
2021/11/19 23:55:51;;;;;;;16.33;7.38;;;8.70;99.90;;;;;;10318124;28;20050;-88
